createdAt,value
2019-05-06T00:01:34.680Z,4.45
2019-05-06T00:04:04.846Z,3.00
2019-05-06T00:06:34.546Z,2.40
2019-05-06T00:09:04.957Z,3.58
2019-05-06T00:11:34.642Z,2.40
2019-05-06T00:14:04.074Z,2.75
2019-05-06T00:16:34.750Z,2.42
2019-05-06T00:19:04.831Z,3.75
2019-05-06T00:21:35.605Z,2.30
2019-05-06T00:24:04.702Z,1.90
2019-05-06T00:26:37.756Z,4.85
2019-05-06T00:29:08.042Z,2.22
2019-05-06T00:31:36.767Z,2.47
2019-05-06T00:34:05.444Z,2.00
2019-05-06T00:36:34.435Z,2.40
2019-05-06T00:39:05.145Z,2.15
2019-05-06T00:41:36.474Z,2.50
2019-05-06T00:44:04.427Z,2.65
2019-05-06T00:46:34.431Z,2.50
2019-05-06T00:49:03.840Z,2.20
2019-05-06T00:51:33.920Z,2.77
2019-05-06T00:54:14.309Z,3.87
2019-05-06T00:56:44.732Z,2.22
2019-05-06T00:59:14.324Z,3.72
2019-05-06T01:01:43.518Z,2.67
2019-05-06T01:04:13.936Z,2.22
2019-05-06T01:06:44.070Z,2.80
2019-05-06T01:09:14.790Z,2.22
2019-05-06T01:11:45.149Z,3.05
2019-05-06T01:14:15.476Z,2.50
2019-05-06T01:16:44.318Z,2.55
2019-05-06T01:19:14.133Z,3.02
2019-05-06T01:21:44.686Z,2.42
2019-05-06T01:24:14.720Z,2.62
2019-05-06T01:26:44.392Z,2.60
2019-05-06T01:29:14.516Z,2.30
2019-05-06T01:31:45.967Z,2.20
2019-05-06T01:34:13.917Z,2.55
2019-05-06T01:36:43.728Z,2.80
2019-05-06T01:39:30.446Z,2.90
2019-05-06T01:42:00.782Z,2.92
2019-05-06T01:44:29.472Z,2.27
2019-05-06T01:46:58.178Z,2.15
2019-05-06T01:49:26.849Z,2.50
2019-05-06T01:51:55.531Z,3.35
2019-05-06T01:54:24.871Z,2.58
2019-05-06T01:56:54.281Z,2.47
2019-05-06T01:59:24.646Z,3.00
2019-05-06T02:01:58.132Z,2.45
2019-05-06T02:04:24.433Z,2.70
2019-05-06T02:06:54.533Z,1.95
2019-05-06T02:09:24.680Z,2.75
2019-05-06T02:11:53.743Z,2.60
2019-05-06T02:14:24.505Z,2.40
2019-05-06T02:16:54.566Z,3.17
2019-05-06T02:19:24.165Z,3.87
2019-05-06T02:21:54.853Z,3.80
2019-05-06T02:24:25.210Z,3.47
2019-05-06T02:26:54.372Z,3.72
2019-05-06T02:29:34.742Z,2.70
2019-05-06T02:32:20.873Z,2.90
2019-05-06T02:34:59.462Z,2.77
2019-05-06T02:37:29.778Z,2.90
2019-05-06T02:39:58.458Z,2.58
2019-05-06T02:42:27.170Z,2.40
2019-05-06T02:44:55.858Z,2.77
2019-05-06T02:47:34.313Z,2.33
2019-05-06T02:50:04.671Z,2.75
2019-05-06T02:52:33.543Z,2.20
2019-05-06T02:55:02.267Z,3.00
2019-05-06T02:57:33.508Z,2.25
2019-05-06T03:00:04.787Z,2.37
2019-05-06T03:02:42.020Z,2.22
2019-05-06T03:05:04.256Z,2.50
2019-05-06T03:07:32.831Z,2.37
2019-05-06T03:10:07.116Z,2.37
2019-05-06T03:12:35.800Z,2.40
2019-05-06T03:15:05.729Z,1.80
2019-05-06T03:17:34.419Z,2.05
2019-05-06T03:20:04.750Z,3.00
2019-05-06T03:22:35.085Z,2.45
2019-05-06T03:25:13.494Z,3.08
2019-05-06T03:27:46.488Z,3.12
2019-05-06T03:30:16.393Z,3.05
2019-05-06T03:33:20.187Z,2.60
2019-05-06T03:35:27.421Z,2.62
2019-05-06T03:37:44.162Z,3.98
2019-05-06T03:40:13.829Z,3.50
2019-05-06T03:42:42.844Z,3.25
2019-05-06T03:45:13.376Z,3.02
2019-05-06T03:47:46.660Z,3.00
2019-05-06T03:50:15.337Z,2.55
2019-05-06T03:52:44.417Z,3.05
2019-05-06T03:55:13.983Z,2.42
2019-05-06T03:57:43.060Z,3.22
2019-05-06T04:00:16.005Z,3.85
2019-05-06T04:02:43.791Z,3.27
2019-05-06T04:05:13.432Z,2.98
2019-05-06T04:07:45.471Z,2.62
2019-05-06T04:10:13.729Z,2.98
2019-05-06T04:12:43.724Z,3.77
2019-05-06T04:15:14.062Z,3.40
2019-05-06T04:17:44.506Z,4.05
2019-05-06T04:20:14.828Z,4.00
2019-05-06T04:22:54.445Z,3.60
2019-05-06T04:25:43.724Z,3.42
2019-05-06T04:28:23.954Z,3.80
2019-05-06T04:30:54.818Z,3.30
2019-05-06T04:33:23.873Z,3.60
2019-05-06T04:35:54.145Z,3.92
2019-05-06T04:38:23.725Z,3.80
2019-05-06T04:40:54.501Z,2.72
2019-05-06T04:43:26.942Z,3.25
2019-05-06T04:45:54.197Z,3.25
2019-05-06T04:48:24.020Z,4.20
2019-05-06T04:50:53.747Z,3.25
2019-05-06T04:53:26.447Z,3.00
2019-05-06T04:55:53.961Z,3.33
2019-05-06T04:58:23.425Z,3.22
2019-05-06T05:00:53.164Z,3.62
2019-05-06T05:03:22.904Z,2.95
2019-05-06T05:05:53.112Z,3.10
2019-05-06T05:08:23.915Z,3.12
2019-05-06T05:10:54.251Z,3.25
2019-05-06T05:13:24.628Z,3.33
2019-05-06T05:16:02.650Z,3.62
2019-05-06T05:18:35.913Z,3.70
2019-05-06T05:21:04.601Z,2.52
2019-05-06T05:23:33.787Z,2.80
2019-05-06T05:26:02.988Z,3.45
2019-05-06T05:28:32.183Z,4.40
2019-05-06T05:31:02.904Z,4.83
2019-05-06T05:33:32.698Z,5.65
2019-05-06T05:36:02.126Z,5.50
2019-05-06T05:38:32.021Z,5.10
2019-05-06T05:41:02.884Z,5.72
2019-05-06T05:43:48.384Z,6.17
2019-05-06T05:46:17.090Z,4.35
2019-05-06T05:48:47.420Z,4.60
2019-05-06T05:51:16.104Z,4.12
2019-05-06T05:53:44.819Z,3.70
2019-05-06T05:56:13.851Z,3.55
2019-05-06T05:58:42.566Z,4.10
2019-05-06T06:01:12.722Z,3.17
2019-05-06T06:03:42.189Z,3.25
2019-05-06T06:06:12.604Z,2.35
2019-05-06T06:08:43.062Z,2.77
2019-05-06T06:11:16.290Z,2.75
2019-05-06T06:13:45.051Z,2.30
2019-05-06T06:16:23.141Z,3.05
2019-05-06T06:18:57.566Z,2.70
2019-05-06T06:21:37.097Z,2.58
2019-05-06T06:24:16.101Z,2.12
2019-05-06T06:26:44.819Z,3.05
2019-05-06T06:29:13.514Z,2.47
2019-05-06T06:32:00.325Z,2.70
2019-05-06T06:34:32.848Z,3.62
2019-05-06T06:37:18.728Z,2.92
2019-05-06T06:39:49.124Z,3.47
2019-05-06T06:42:17.810Z,3.50
2019-05-06T06:44:46.907Z,2.80
2019-05-06T06:47:15.582Z,3.00
2019-05-06T06:49:44.348Z,3.77
2019-05-06T06:52:14.978Z,4.50
2019-05-06T06:54:43.935Z,5.12
2019-05-06T06:57:14.315Z,4.62
2019-05-06T06:59:45.517Z,4.30
2019-05-06T07:02:27.835Z,3.42
2019-05-06T07:04:58.187Z,3.55
2019-05-06T07:07:41.340Z,3.98
2019-05-06T07:09:59.530Z,2.65
2019-05-06T07:12:28.275Z,3.15
2019-05-06T07:15:02.843Z,3.17
2019-05-06T07:17:32.799Z,2.90
2019-05-06T07:20:05.961Z,3.20
2019-05-06T07:22:36.288Z,3.10
2019-05-06T07:25:08.493Z,3.02
2019-05-06T07:27:37.211Z,3.20
2019-05-06T07:30:07.219Z,3.40
2019-05-06T07:32:35.900Z,3.08
2019-05-06T07:35:06.286Z,3.00
2019-05-06T07:37:35.072Z,3.52
2019-05-06T07:40:05.472Z,3.17
2019-05-06T07:42:39.061Z,2.98
2019-05-06T07:45:12.606Z,3.35
2019-05-06T07:47:44.447Z,3.90
2019-05-06T07:50:13.279Z,3.95
2019-05-06T07:52:43.555Z,3.50
2019-05-06T07:55:12.323Z,2.70
2019-05-06T07:57:42.406Z,3.27
2019-05-06T08:00:12.530Z,3.20
2019-05-06T08:02:42.594Z,3.95
2019-05-06T08:05:12.725Z,3.12
2019-05-06T08:07:42.278Z,3.60
2019-05-06T08:10:13.440Z,3.98
2019-05-06T08:12:42.866Z,4.03
2019-05-06T08:15:12.686Z,3.83
2019-05-06T08:17:42.520Z,3.45
2019-05-06T08:20:12.919Z,3.52
2019-05-06T08:22:49.435Z,3.50
2019-05-06T08:25:18.114Z,2.80
2019-05-06T08:27:49.380Z,2.92
2019-05-06T08:30:17.289Z,2.75
2019-05-06T08:32:46.010Z,3.22
2019-05-06T08:35:16.361Z,3.10
2019-05-06T08:37:48.099Z,2.80
2019-05-06T08:40:19.107Z,3.30
2019-05-06T08:42:47.859Z,2.83
2019-05-06T08:45:16.554Z,2.85
2019-05-06T08:47:45.250Z,2.35
2019-05-06T08:50:16.449Z,2.55
2019-05-06T08:52:52.549Z,3.05
2019-05-06T08:55:34.904Z,3.55
2019-05-06T08:58:04.064Z,2.72
2019-05-06T09:00:42.739Z,2.30
2019-05-06T09:03:10.750Z,2.70
2019-05-06T09:05:39.451Z,2.35
2019-05-06T09:08:08.136Z,3.10
2019-05-06T09:10:36.879Z,2.15
2019-05-06T09:13:05.555Z,2.98
2019-05-06T09:15:34.242Z,2.60
2019-05-06T09:18:03.147Z,2.70
2019-05-06T09:20:32.618Z,2.95
2019-05-06T09:23:04.496Z,3.12
2019-05-06T09:25:32.349Z,2.85
2019-05-06T09:28:14.739Z,2.55
2019-05-06T09:30:45.065Z,3.15
2019-05-06T09:33:15.383Z,2.80
2019-05-06T09:35:44.074Z,3.08
2019-05-06T09:38:12.856Z,2.50
2019-05-06T09:40:43.224Z,2.42
2019-05-06T09:43:13.238Z,2.98
2019-05-06T09:45:43.200Z,3.00
2019-05-06T09:48:13.538Z,3.08
2019-05-06T09:50:46.193Z,3.58
2019-05-06T09:53:16.015Z,2.80
2019-05-06T09:55:49.329Z,2.98
2019-05-06T09:58:18.014Z,2.50
2019-05-06T10:00:48.394Z,2.52
2019-05-06T10:03:17.082Z,2.33
2019-05-06T10:05:45.783Z,3.00
2019-05-06T10:08:14.505Z,2.50
2019-05-06T10:10:56.019Z,2.47
2019-05-06T10:13:13.524Z,2.50
2019-05-06T10:15:42.887Z,1.82
2019-05-06T10:18:13.245Z,2.12
2019-05-06T10:20:43.651Z,2.70
2019-05-06T10:23:12.531Z,2.22
2019-05-06T10:25:43.320Z,2.35
2019-05-06T10:28:13.194Z,2.10
2019-05-06T10:30:41.908Z,2.10
2019-05-06T10:33:21.018Z,3.90
2019-05-06T10:35:49.754Z,2.85
2019-05-06T10:38:27.727Z,2.77
2019-05-06T10:41:03.876Z,2.27
2019-05-06T10:44:03.246Z,2.72
2019-05-06T10:46:31.957Z,3.02
2019-05-06T10:49:02.595Z,2.58
2019-05-06T10:51:38.828Z,3.45
2019-05-06T10:54:07.514Z,2.62
2019-05-06T10:56:49.922Z,1.67
2019-05-06T10:59:09.846Z,2.00
2019-05-06T11:01:42.538Z,2.05
2019-05-06T11:04:10.511Z,2.12
2019-05-06T11:06:39.229Z,2.22
2019-05-06T11:09:09.121Z,2.40
2019-05-06T11:11:38.653Z,2.08
2019-05-06T11:14:07.692Z,2.58
2019-05-06T11:16:36.380Z,2.10
2019-05-06T11:19:05.291Z,1.70
2019-05-06T11:21:34.096Z,2.67
2019-05-06T11:24:06.021Z,2.42
2019-05-06T11:26:33.128Z,1.90
2019-05-06T11:29:05.152Z,1.87
2019-05-06T11:31:35.498Z,2.20
2019-05-06T11:34:14.661Z,2.10
2019-05-06T11:36:47.693Z,2.10
2019-05-06T11:39:16.379Z,2.45
2019-05-06T11:42:01.693Z,1.57
2019-05-06T11:44:15.447Z,2.08
2019-05-06T11:46:44.151Z,2.30
2019-05-06T11:49:12.870Z,1.90
2019-05-06T11:51:43.557Z,2.20
2019-05-06T11:54:17.455Z,1.20
2019-05-06T11:56:50.626Z,2.22
2019-05-06T11:59:14.074Z,3.75
2019-05-06T12:01:47.170Z,2.25
2019-05-06T12:04:15.862Z,2.17
2019-05-06T12:06:45.883Z,1.62
2019-05-06T12:09:17.019Z,2.25
2019-05-06T12:11:44.999Z,1.95
2019-05-06T12:14:13.679Z,2.05
2019-05-06T12:16:42.383Z,2.10
2019-05-06T12:19:14.031Z,1.70
2019-05-06T12:21:43.207Z,1.95
2019-05-06T12:24:12.281Z,1.90
2019-05-06T12:26:42.924Z,2.08
2019-05-06T12:29:12.734Z,1.70
2019-05-06T12:31:42.157Z,3.25
2019-05-06T12:34:12.426Z,2.00
2019-05-06T12:36:42.761Z,1.85
2019-05-06T12:39:18.535Z,1.70
2019-05-06T12:41:57.127Z,1.60
2019-05-06T12:44:25.831Z,1.62
2019-05-06T12:46:59.616Z,2.02
2019-05-06T12:49:26.484Z,2.00
2019-05-06T12:51:55.217Z,1.30
2019-05-06T12:54:23.901Z,1.70
2019-05-06T12:56:54.247Z,1.57
2019-05-06T12:59:22.962Z,2.40
2019-05-06T13:01:54.040Z,1.55
2019-05-06T13:04:44.281Z,1.77
2019-05-06T13:06:52.363Z,1.63
2019-05-06T13:09:22.559Z,1.55
2019-05-06T13:11:52.374Z,1.62
2019-05-06T13:14:22.356Z,1.73
2019-05-06T13:16:53.025Z,1.57
2019-05-06T13:19:22.852Z,1.40
2019-05-06T13:21:51.416Z,1.67
2019-05-06T13:24:19.913Z,2.70
2019-05-06T13:26:48.336Z,1.50
2019-05-06T13:29:22.707Z,1.90
2019-05-06T13:31:52.996Z,1.77
2019-05-06T13:34:23.497Z,1.62
2019-05-06T13:36:53.214Z,1.40
2019-05-06T13:39:23.737Z,1.57
2019-05-06T13:41:52.942Z,1.40
2019-05-06T13:44:22.751Z,1.47
2019-05-06T13:46:53.297Z,1.90
2019-05-06T13:49:33.000Z,1.80
2019-05-06T13:52:04.472Z,1.77
2019-05-06T13:54:33.752Z,1.85
2019-05-06T13:57:03.046Z,2.60
2019-05-06T13:59:34.710Z,1.92
2019-05-06T14:02:22.195Z,2.33
2019-05-06T14:04:52.751Z,2.55
2019-05-06T14:07:23.949Z,2.60
2019-05-06T14:09:53.226Z,1.82
2019-05-06T14:12:22.193Z,4.90
2019-05-06T14:14:52.655Z,2.47
2019-05-06T14:17:22.383Z,1.52
2019-05-06T14:19:53.340Z,1.98
2019-05-06T14:22:23.236Z,1.77
2019-05-06T14:24:57.001Z,1.53
2019-05-06T14:27:25.689Z,1.70
2019-05-06T14:29:58.807Z,1.20
2019-05-06T14:32:27.541Z,1.40
2019-05-06T14:34:56.229Z,1.50
2019-05-06T14:37:24.923Z,1.17
2019-05-06T14:39:59.161Z,1.30
2019-05-06T14:42:25.072Z,1.43
2019-05-06T14:44:53.763Z,2.22
2019-05-06T14:47:29.830Z,1.30
2019-05-06T14:49:58.246Z,1.93
2019-05-06T14:52:26.965Z,1.77
2019-05-06T14:54:57.075Z,1.80
2019-05-06T14:57:26.360Z,1.53
2019-05-06T14:59:55.897Z,2.23
2019-05-06T15:02:27.211Z,1.80
2019-05-06T15:04:55.772Z,1.70
2019-05-06T15:07:24.195Z,1.57
2019-05-06T15:10:02.409Z,1.53
2019-05-06T15:12:23.246Z,1.50
2019-05-06T15:14:52.624Z,1.90
2019-05-06T15:17:22.969Z,1.60
2019-05-06T15:19:52.492Z,1.40
2019-05-06T15:22:22.538Z,1.33
2019-05-06T15:24:53.663Z,1.57
2019-05-06T15:27:22.726Z,1.90
2019-05-06T15:29:54.464Z,2.70
2019-05-06T15:32:27.222Z,1.80
2019-05-06T15:35:02.442Z,1.47
2019-05-06T15:37:33.874Z,1.27
2019-05-06T15:40:03.051Z,1.60
2019-05-06T15:42:33.952Z,1.27
2019-05-06T15:45:01.754Z,1.23
2019-05-06T15:47:32.243Z,1.27
2019-05-06T15:50:00.253Z,2.00
2019-05-06T15:52:28.709Z,1.53
2019-05-06T15:54:57.134Z,1.60
2019-05-06T15:57:25.563Z,2.93
2019-05-06T15:59:54.293Z,2.40
2019-05-06T16:02:23.231Z,1.73
2019-05-06T16:04:52.029Z,1.70
2019-05-06T16:07:24.451Z,1.83
2019-05-06T16:09:55.080Z,2.15
2019-05-06T16:12:22.045Z,2.83
2019-05-06T16:14:53.028Z,2.98
2019-05-06T16:17:23.577Z,3.60
2019-05-06T16:19:51.638Z,2.60
2019-05-06T16:22:22.605Z,2.65
2019-05-06T16:24:59.338Z,2.65
2019-05-06T16:27:28.052Z,2.33
2019-05-06T16:29:56.738Z,2.30
2019-05-06T16:32:26.799Z,3.90
2019-05-06T16:34:55.500Z,6.50
2019-05-06T16:37:24.196Z,4.40
2019-05-06T16:39:54.682Z,3.50
2019-05-06T16:42:23.228Z,2.95
2019-05-06T16:44:52.721Z,3.10
2019-05-06T16:47:25.830Z,2.92
2019-05-06T16:49:54.538Z,2.40
2019-05-06T16:52:23.231Z,2.60
2019-05-06T16:54:52.162Z,4.28
2019-05-06T16:57:23.651Z,4.62
2019-05-06T16:59:52.349Z,3.33
2019-05-06T17:02:23.890Z,7.25
2019-05-06T17:05:12.462Z,2.12
2019-05-06T17:07:42.265Z,3.42
2019-05-06T17:10:11.926Z,2.98
2019-05-06T17:12:40.598Z,3.15
2019-05-06T17:15:09.293Z,2.92
2019-05-06T17:17:43.448Z,2.60
2019-05-06T17:20:08.348Z,2.33
2019-05-06T17:22:37.068Z,2.72
2019-05-06T17:25:06.033Z,2.20
2019-05-06T17:27:36.082Z,1.92
2019-05-06T17:30:13.378Z,2.45
2019-05-06T17:32:49.683Z,2.33
2019-05-06T17:35:18.678Z,1.85
2019-05-06T17:37:58.246Z,1.70
2019-05-06T17:40:26.938Z,1.65
2019-05-06T17:42:55.614Z,1.65
2019-05-06T17:45:43.096Z,1.45
2019-05-06T17:48:13.636Z,1.10
2019-05-06T17:50:42.343Z,2.05
2019-05-06T17:53:12.298Z,1.72
2019-05-06T17:55:43.167Z,1.60
2019-05-06T17:58:12.968Z,1.90
2019-05-06T18:00:42.964Z,1.98
2019-05-06T18:03:11.786Z,1.72
2019-05-06T18:05:42.176Z,1.77
2019-05-06T18:08:12.863Z,1.87
2019-05-06T18:10:42.668Z,1.70
2019-05-06T18:13:12.603Z,1.98
2019-05-06T18:15:43.070Z,1.70
2019-05-06T18:18:13.012Z,1.80
2019-05-06T18:20:42.685Z,1.40
2019-05-06T18:23:12.958Z,1.27
2019-05-06T18:25:43.079Z,2.02
2019-05-06T18:28:12.311Z,1.95
2019-05-06T18:30:41.145Z,2.12
2019-05-06T18:33:10.158Z,1.67
2019-05-06T18:35:38.843Z,1.92
2019-05-06T18:38:07.548Z,2.80
2019-05-06T18:40:36.233Z,1.85
2019-05-06T18:43:04.923Z,2.10
2019-05-06T18:45:34.775Z,1.98
2019-05-06T18:48:03.452Z,1.80
2019-05-06T18:50:32.561Z,2.15
2019-05-06T18:53:02.453Z,2.00
2019-05-06T18:55:32.722Z,1.70
2019-05-06T18:58:02.292Z,2.02
2019-05-06T19:00:32.049Z,2.95
2019-05-06T19:03:02.697Z,2.65
2019-05-06T19:05:33.038Z,2.30
2019-05-06T19:08:03.907Z,2.33
2019-05-06T19:10:35.358Z,2.37
2019-05-06T19:13:04.050Z,1.42
2019-05-06T19:15:34.036Z,1.42
2019-05-06T19:18:02.727Z,1.80
2019-05-06T19:20:33.827Z,1.92
2019-05-06T19:23:02.416Z,1.50
2019-05-06T19:25:33.927Z,1.40
2019-05-06T19:28:02.261Z,1.45
2019-05-06T19:30:32.035Z,2.30
2019-05-06T19:33:02.941Z,1.62
2019-05-06T19:35:34.169Z,1.50
2019-05-06T19:38:03.023Z,1.70
2019-05-06T19:40:33.215Z,1.50
2019-05-06T19:43:02.972Z,1.72
2019-05-06T19:45:34.423Z,1.70
2019-05-06T19:48:02.898Z,1.85
2019-05-06T19:50:33.039Z,1.20
2019-05-06T19:53:01.857Z,1.62
2019-05-06T19:55:30.536Z,2.00
2019-05-06T19:57:59.551Z,1.70
2019-05-06T20:00:28.833Z,1.65
2019-05-06T20:02:57.526Z,2.35
2019-05-06T20:05:36.859Z,2.47
2019-05-06T20:08:07.186Z,1.62
2019-05-06T20:10:56.272Z,2.05
2019-05-06T20:13:25.313Z,2.10
2019-05-06T20:15:54.008Z,1.82
2019-05-06T20:18:22.709Z,2.72
2019-05-06T20:20:52.868Z,1.80
2019-05-06T20:23:23.190Z,1.75
2019-05-06T20:25:52.044Z,1.75
2019-05-06T20:28:22.683Z,1.60
2019-05-06T20:30:52.865Z,2.10
2019-05-06T20:33:22.075Z,2.02
2019-05-06T20:35:52.597Z,1.95
2019-05-06T20:38:23.181Z,2.08
2019-05-06T20:40:51.621Z,1.50
2019-05-06T20:43:23.203Z,2.30
2019-05-06T20:45:52.187Z,1.65
2019-05-06T20:48:23.339Z,1.85
2019-05-06T20:50:52.323Z,1.80
2019-05-06T20:53:23.060Z,1.70
2019-05-06T20:55:53.191Z,1.55
2019-05-06T20:58:22.980Z,1.40
2019-05-06T21:00:52.209Z,1.60
2019-05-06T21:03:22.143Z,2.10
2019-05-06T21:05:51.163Z,2.70
2019-05-06T21:08:21.943Z,1.92
2019-05-06T21:10:52.732Z,1.60
2019-05-06T21:13:29.474Z,1.62
2019-05-06T21:15:50.888Z,1.70
2019-05-06T21:18:19.617Z,1.72
2019-05-06T21:20:48.294Z,1.62
2019-05-06T21:23:16.978Z,1.67
2019-05-06T21:25:45.683Z,1.70
2019-05-06T21:28:14.682Z,1.87
2019-05-06T21:30:43.378Z,2.37
2019-05-06T21:33:12.574Z,1.75
2019-05-06T21:35:42.407Z,2.00
2019-05-06T21:38:12.151Z,1.70
2019-05-06T21:40:43.117Z,1.92
2019-05-06T21:43:13.054Z,1.92
2019-05-06T21:45:42.492Z,1.95
2019-05-06T21:48:13.394Z,2.52
2019-05-06T21:50:42.703Z,1.77
2019-05-06T21:53:14.394Z,2.60
2019-05-06T21:55:41.931Z,2.10
2019-05-06T21:58:12.454Z,2.50
2019-05-06T22:00:43.357Z,2.15
2019-05-06T22:03:13.440Z,2.30
2019-05-06T22:05:42.312Z,2.00
2019-05-06T22:08:12.858Z,2.62
2019-05-06T22:10:42.127Z,1.90
2019-05-06T22:13:12.570Z,2.50
2019-05-06T22:15:42.163Z,2.30
2019-05-06T22:18:12.430Z,2.20
2019-05-06T22:20:59.091Z,2.02
2019-05-06T22:23:29.467Z,2.40
2019-05-06T22:26:11.162Z,2.25
2019-05-06T22:28:28.531Z,1.90
2019-05-06T22:30:57.251Z,2.15
2019-05-06T22:33:25.927Z,2.87
2019-05-06T22:35:54.904Z,2.87
2019-05-06T22:38:25.161Z,2.50
2019-05-06T22:40:53.841Z,2.40
2019-05-06T22:43:22.523Z,1.80
2019-05-06T22:45:53.203Z,2.20
2019-05-06T22:48:22.219Z,2.40
2019-05-06T22:50:52.929Z,2.35
2019-05-06T22:53:24.736Z,2.55
2019-05-06T22:55:53.333Z,2.58
2019-05-06T22:58:22.764Z,1.90
2019-05-06T23:00:55.405Z,3.50
2019-05-06T23:03:25.722Z,3.08
2019-05-06T23:05:54.410Z,3.85
2019-05-06T23:08:23.139Z,2.08
2019-05-06T23:10:52.831Z,1.40
2019-05-06T23:13:23.103Z,2.45
2019-05-06T23:15:52.431Z,1.95
2019-05-06T23:18:22.273Z,2.10
2019-05-06T23:20:52.706Z,1.80
2019-05-06T23:23:22.245Z,2.00
2019-05-06T23:26:08.767Z,2.20
2019-05-06T23:28:37.484Z,1.60
2019-05-06T23:31:06.164Z,1.85
2019-05-06T23:33:34.867Z,1.52
2019-05-06T23:36:03.573Z,1.90
2019-05-06T23:39:09.267Z,1.62
2019-05-06T23:42:14.714Z,2.00
2019-05-06T23:45:19.961Z,1.72
2019-05-06T23:48:25.898Z,2.00
2019-05-06T23:51:32.964Z,1.70
2019-05-06T23:54:37.901Z,2.17
2019-05-06T23:57:05.703Z,2.17
2019-05-06T23:59:34.388Z,2.17
